createdAt,value
2023-03-29T00:02:02.618Z,5.63
2023-03-29T00:04:34.009Z,7.05
2023-03-29T00:07:04.309Z,5.68
2023-03-29T00:09:32.880Z,8.73
2023-03-29T00:12:01.139Z,4.97
2023-03-29T00:14:30.334Z,4.18
2023-03-29T00:16:57.614Z,4.65
2023-03-29T00:19:24.402Z,7.10
2023-03-29T00:21:51.075Z,7.32
2023-03-29T00:24:17.777Z,4.25
2023-03-29T00:26:44.479Z,5.90
2023-03-29T00:29:12.649Z,6.40
2023-03-29T00:31:39.736Z,4.95
2023-03-29T00:34:07.127Z,3.95
2023-03-29T00:36:33.840Z,5.38
2023-03-29T00:39:00.697Z,5.10
2023-03-29T00:41:27.408Z,4.40
2023-03-29T00:43:59.943Z,4.50
2023-03-29T00:46:27.824Z,5.10
2023-03-29T00:49:17.214Z,4.07
2023-03-29T00:51:44.151Z,6.13
2023-03-29T00:54:15.306Z,3.08
2023-03-29T00:56:46.654Z,3.78
2023-03-29T00:59:18.692Z,4.38
2023-03-29T01:01:54.584Z,5.82
2023-03-29T01:04:40.589Z,5.65
2023-03-29T01:07:32.336Z,6.90
2023-03-29T01:10:14.478Z,2.80
2023-03-29T01:12:47.352Z,4.28
2023-03-29T01:15:25.059Z,3.20
2023-03-29T01:17:53.742Z,5.20
2023-03-29T01:20:38.739Z,5.03
2023-03-29T01:23:17.292Z,4.68
2023-03-29T01:26:06.372Z,5.53
2023-03-29T01:28:39.140Z,4.03
2023-03-29T01:31:10.651Z,2.65
2023-03-29T01:33:45.030Z,4.28
2023-03-29T01:36:24.821Z,5.28
2023-03-29T01:38:57.088Z,6.05
2023-03-29T01:41:35.128Z,3.55
2023-03-29T01:44:21.283Z,3.65
2023-03-29T01:46:55.916Z,5.03
2023-03-29T01:49:25.571Z,6.47
2023-03-29T01:52:06.505Z,5.28
2023-03-29T01:54:43.334Z,4.85
2023-03-29T01:57:11.730Z,3.75
2023-03-29T01:59:42.070Z,3.83
2023-03-29T02:02:14.485Z,5.03
2023-03-29T02:04:51.725Z,4.13
2023-03-29T02:07:23.938Z,2.83
2023-03-29T02:09:52.469Z,3.17
2023-03-29T02:12:20.670Z,6.57
2023-03-29T02:14:47.368Z,5.78
2023-03-29T02:17:23.458Z,4.15
2023-03-29T02:20:14.524Z,4.85
2023-03-29T02:23:09.703Z,5.03
2023-03-29T02:25:37.883Z,3.33
2023-03-29T02:28:06.721Z,3.88
2023-03-29T02:30:44.211Z,3.72
2023-03-29T02:33:21.858Z,4.45
2023-03-29T02:36:03.228Z,5.45
2023-03-29T02:38:31.846Z,4.38
2023-03-29T02:41:00.559Z,3.58
2023-03-29T02:43:29.019Z,7.35
2023-03-29T02:45:56.283Z,4.05
2023-03-29T02:48:26.733Z,5.13
2023-03-29T02:50:58.180Z,5.65
2023-03-29T02:53:31.963Z,3.38
2023-03-29T02:56:02.093Z,3.97
2023-03-29T02:58:29.460Z,3.83
2023-03-29T03:00:59.053Z,4.55
2023-03-29T03:03:25.907Z,5.72
2023-03-29T03:05:53.805Z,4.93
2023-03-29T03:08:20.596Z,6.05
2023-03-29T03:10:48.199Z,5.43
2023-03-29T03:13:15.003Z,4.20
2023-03-29T03:15:42.856Z,3.03
2023-03-29T03:18:10.532Z,6.95
2023-03-29T03:20:37.288Z,5.18
2023-03-29T03:23:04.034Z,4.65
2023-03-29T03:25:31.685Z,4.75
2023-03-29T03:27:58.521Z,4.90
2023-03-29T03:30:25.476Z,3.70
2023-03-29T03:33:07.762Z,4.00
2023-03-29T03:36:13.295Z,4.38
2023-03-29T03:38:43.988Z,3.78
2023-03-29T03:41:11.611Z,5.20
2023-03-29T03:43:41.350Z,3.65
2023-03-29T03:46:08.437Z,4.72
2023-03-29T03:48:35.903Z,4.55
2023-03-29T03:51:15.233Z,5.63
2023-03-29T03:53:42.812Z,5.03
2023-03-29T03:56:13.834Z,6.78
2023-03-29T03:58:58.111Z,4.75
2023-03-29T04:01:27.201Z,5.38
2023-03-29T04:04:04.513Z,5.43
2023-03-29T04:06:32.501Z,5.35
2023-03-29T04:09:18.510Z,3.58
2023-03-29T04:11:53.012Z,6.93
2023-03-29T04:14:20.471Z,4.70
2023-03-29T04:17:08.992Z,5.35
2023-03-29T04:20:12.557Z,3.10
2023-03-29T04:22:41.060Z,7.22
2023-03-29T04:25:08.497Z,5.22
2023-03-29T04:27:35.139Z,3.50
2023-03-29T04:30:07.222Z,5.70
2023-03-29T04:33:06.142Z,4.28
2023-03-29T04:35:34.760Z,4.93
2023-03-29T04:38:04.207Z,5.63
2023-03-29T04:40:31.073Z,4.10
2023-03-29T04:43:23.667Z,6.20
2023-03-29T04:45:59.866Z,3.40
2023-03-29T04:48:46.870Z,3.88
2023-03-29T04:51:14.491Z,5.40
2023-03-29T04:53:45.792Z,7.00
2023-03-29T04:56:12.466Z,6.38
2023-03-29T04:59:02.486Z,6.00
2023-03-29T05:01:29.576Z,4.68
2023-03-29T05:03:58.803Z,4.10
2023-03-29T05:06:34.220Z,6.53
2023-03-29T05:09:02.427Z,4.32
2023-03-29T05:11:33.895Z,6.28
2023-03-29T05:14:03.208Z,7.15
2023-03-29T05:16:34.449Z,4.30
2023-03-29T05:19:01.555Z,10.77
2023-03-29T05:21:30.198Z,6.28
2023-03-29T05:24:01.180Z,5.88
2023-03-29T05:26:53.742Z,4.47
2023-03-29T05:29:20.750Z,7.07
2023-03-29T05:31:54.020Z,7.05
2023-03-29T05:34:20.811Z,6.63
2023-03-29T05:36:56.787Z,7.13
2023-03-29T05:39:24.146Z,7.40
2023-03-29T05:41:51.317Z,9.95
2023-03-29T05:44:26.818Z,10.10
2023-03-29T05:47:00.267Z,8.43
2023-03-29T05:49:27.219Z,6.72
2023-03-29T05:52:03.940Z,11.65
2023-03-29T05:54:32.472Z,9.70
2023-03-29T05:56:59.520Z,7.00
2023-03-29T05:59:28.550Z,8.48
2023-03-29T06:01:55.833Z,9.43
2023-03-29T06:04:22.980Z,7.47
2023-03-29T06:07:12.269Z,7.07
2023-03-29T06:09:41.769Z,8.80
2023-03-29T06:12:08.834Z,7.90
2023-03-29T06:14:58.149Z,6.30
2023-03-29T06:17:36.075Z,9.05
2023-03-29T06:20:06.770Z,13.57
2023-03-29T06:22:33.645Z,7.72
2023-03-29T06:25:00.868Z,16.40
2023-03-29T06:27:32.703Z,12.73
2023-03-29T06:30:00.604Z,10.63
2023-03-29T06:32:28.047Z,9.80
2023-03-29T06:35:02.605Z,8.40
2023-03-29T06:37:32.806Z,11.98
2023-03-29T06:40:21.072Z,8.20
2023-03-29T06:42:48.444Z,10.40
2023-03-29T06:45:36.278Z,8.77
2023-03-29T06:48:08.441Z,8.82
2023-03-29T06:50:35.966Z,9.02
2023-03-29T06:53:08.894Z,7.45
2023-03-29T06:55:36.193Z,6.80
2023-03-29T06:58:22.625Z,8.70
2023-03-29T07:00:49.387Z,8.45
2023-03-29T07:03:24.588Z,7.15
2023-03-29T07:06:01.287Z,8.15
2023-03-29T07:08:31.501Z,7.30
2023-03-29T07:11:02.336Z,8.38
2023-03-29T07:14:04.399Z,7.95
2023-03-29T07:16:32.656Z,8.15
2023-03-29T07:19:10.052Z,8.82
2023-03-29T07:21:55.015Z,11.02
2023-03-29T07:24:28.300Z,7.50
2023-03-29T07:27:03.222Z,6.75
2023-03-29T07:29:32.797Z,7.80
2023-03-29T07:32:00.163Z,6.55
2023-03-29T07:34:42.204Z,8.80
2023-03-29T07:37:13.882Z,10.70
2023-03-29T07:39:42.544Z,7.57
2023-03-29T07:42:38.898Z,5.05
2023-03-29T07:45:08.802Z,5.57
2023-03-29T07:47:46.248Z,9.00
2023-03-29T07:50:14.527Z,10.50
2023-03-29T07:52:41.514Z,6.13
2023-03-29T07:55:10.987Z,6.15
2023-03-29T07:57:56.739Z,10.77
2023-03-29T08:00:24.672Z,5.40
2023-03-29T08:03:12.451Z,8.20
2023-03-29T08:05:41.741Z,12.05
2023-03-29T08:08:14.792Z,5.95
2023-03-29T08:10:53.779Z,9.82
2023-03-29T08:13:42.413Z,5.97
2023-03-29T08:16:27.101Z,5.28
2023-03-29T08:19:03.280Z,6.70
2023-03-29T08:21:47.347Z,6.43
2023-03-29T08:24:14.898Z,10.30
2023-03-29T08:26:46.720Z,7.53
2023-03-29T08:29:15.596Z,5.45
2023-03-29T08:31:43.682Z,9.32
2023-03-29T08:34:10.535Z,7.07
2023-03-29T08:37:00.453Z,6.97
2023-03-29T08:39:36.493Z,12.88
2023-03-29T08:42:54.354Z,8.27
2023-03-29T08:45:55.803Z,9.50
2023-03-29T08:48:37.592Z,17.00
2023-03-29T08:51:19.344Z,5.47
2023-03-29T08:53:52.580Z,5.30
2023-03-29T08:56:30.313Z,8.05
2023-03-29T08:59:31.894Z,6.10
2023-03-29T09:02:04.044Z,8.38
2023-03-29T09:04:36.405Z,12.90
2023-03-29T09:07:22.224Z,9.75
2023-03-29T09:09:50.803Z,9.13
2023-03-29T09:13:02.437Z,12.55
2023-03-29T09:15:41.752Z,4.70
2023-03-29T09:18:33.209Z,8.85
2023-03-29T09:21:01.508Z,7.22
2023-03-29T09:24:05.719Z,5.82
2023-03-29T09:27:05.220Z,5.20
2023-03-29T09:29:41.402Z,6.22
2023-03-29T09:32:23.051Z,6.25
2023-03-29T09:35:06.265Z,6.15
2023-03-29T09:37:37.245Z,8.25
2023-03-29T09:40:16.464Z,9.77
2023-03-29T09:43:02.207Z,4.40
2023-03-29T09:45:29.063Z,5.70
2023-03-29T09:48:13.327Z,6.38
2023-03-29T09:50:46.719Z,5.95
2023-03-29T09:53:18.515Z,7.43
2023-03-29T09:55:55.289Z,10.25
2023-03-29T09:58:38.627Z,5.18
2023-03-29T10:01:10.896Z,9.35
2023-03-29T10:03:39.977Z,5.18
2023-03-29T10:06:12.660Z,9.63
2023-03-29T10:08:58.878Z,13.15
2023-03-29T10:11:32.971Z,5.93
2023-03-29T10:14:12.600Z,4.65
2023-03-29T10:16:41.849Z,5.72
2023-03-29T10:19:30.909Z,8.48
2023-03-29T10:22:00.569Z,4.57
2023-03-29T10:24:28.001Z,7.75
2023-03-29T10:26:59.294Z,8.43
2023-03-29T10:29:27.594Z,5.78
2023-03-29T10:31:54.660Z,8.30
2023-03-29T10:34:25.799Z,5.60
2023-03-29T10:37:00.987Z,7.32
2023-03-29T10:39:31.710Z,5.22
2023-03-29T10:42:00.247Z,8.88
2023-03-29T10:44:36.621Z,7.28
2023-03-29T10:47:14.456Z,7.32
2023-03-29T10:49:44.079Z,9.68
2023-03-29T10:52:13.873Z,6.78
2023-03-29T10:54:40.723Z,9.93
2023-03-29T10:57:11.135Z,8.80
2023-03-29T11:00:15.615Z,7.93
2023-03-29T11:02:55.237Z,8.02
2023-03-29T11:05:39.111Z,8.07
2023-03-29T11:08:25.912Z,9.27
2023-03-29T11:11:35.993Z,7.50
2023-03-29T11:14:20.431Z,6.47
2023-03-29T11:17:12.733Z,5.65
2023-03-29T11:20:14.057Z,7.30
2023-03-29T11:22:55.900Z,9.70
2023-03-29T11:25:49.067Z,5.95
2023-03-29T11:28:47.441Z,5.78
2023-03-29T11:31:32.577Z,12.05
2023-03-29T11:34:21.757Z,8.00
2023-03-29T11:37:15.199Z,8.55
2023-03-29T11:40:13.602Z,6.32
2023-03-29T11:42:45.732Z,7.63
2023-03-29T11:45:18.701Z,8.90
2023-03-29T11:47:46.716Z,7.93
2023-03-29T11:50:43.591Z,9.65
2023-03-29T11:53:19.648Z,9.07
2023-03-29T11:55:47.209Z,10.02
2023-03-29T11:58:26.525Z,11.32
2023-03-29T12:01:09.949Z,12.38
2023-03-29T12:03:44.188Z,9.52
2023-03-29T12:06:37.758Z,10.60
2023-03-29T12:09:29.839Z,14.05
2023-03-29T12:12:30.218Z,10.48
2023-03-29T12:15:01.066Z,11.43
2023-03-29T12:17:32.844Z,13.13
2023-03-29T12:20:05.030Z,14.73
2023-03-29T12:22:33.686Z,15.38
2023-03-29T12:25:03.855Z,11.32
2023-03-29T12:27:48.863Z,15.38
2023-03-29T12:30:50.956Z,12.18
2023-03-29T12:33:47.695Z,9.30
2023-03-29T12:36:51.825Z,9.85
2023-03-29T12:39:37.550Z,10.65
2023-03-29T12:42:24.162Z,13.50
2023-03-29T12:45:38.600Z,11.48
2023-03-29T12:48:07.429Z,10.07
2023-03-29T12:50:37.759Z,10.70
2023-03-29T12:53:13.305Z,9.55
2023-03-29T12:55:43.440Z,11.15
2023-03-29T12:58:53.726Z,11.00
2023-03-29T13:01:36.801Z,11.57
2023-03-29T13:04:20.001Z,8.93
2023-03-29T13:06:46.642Z,7.68
2023-03-29T13:09:58.900Z,14.35
2023-03-29T13:12:31.418Z,13.43
2023-03-29T13:15:02.421Z,9.30
2023-03-29T13:17:48.578Z,9.68
2023-03-29T13:20:34.564Z,9.48
2023-03-29T13:23:25.037Z,10.43
2023-03-29T13:26:00.261Z,11.63
2023-03-29T13:28:35.712Z,9.85
2023-03-29T13:31:15.726Z,15.55
2023-03-29T13:34:20.268Z,8.55
2023-03-29T13:37:04.647Z,9.10
2023-03-29T13:39:36.718Z,9.48
2023-03-29T13:42:37.126Z,8.63
2023-03-29T13:45:26.949Z,6.93
2023-03-29T13:48:06.307Z,6.90
2023-03-29T13:50:39.768Z,7.53
2023-03-29T13:53:29.838Z,9.40
2023-03-29T13:55:58.395Z,10.55
2023-03-29T13:58:42.756Z,7.22
2023-03-29T14:01:39.690Z,8.65
2023-03-29T14:04:09.806Z,8.23
2023-03-29T14:06:38.165Z,10.48
2023-03-29T14:09:08.702Z,8.50
2023-03-29T14:11:36.397Z,8.50
2023-03-29T14:14:10.989Z,7.30
2023-03-29T14:16:39.991Z,6.93
2023-03-29T14:19:24.409Z,15.23
2023-03-29T14:21:53.096Z,8.55
2023-03-29T14:24:26.944Z,8.02
2023-03-29T14:26:55.090Z,9.10
2023-03-29T14:29:24.248Z,6.50
2023-03-29T14:31:52.128Z,10.23
2023-03-29T14:34:19.108Z,7.88
2023-03-29T14:36:48.917Z,7.65
2023-03-29T14:39:19.144Z,7.15
2023-03-29T14:41:54.308Z,7.20
2023-03-29T14:44:23.271Z,11.65
2023-03-29T14:46:50.315Z,6.60
2023-03-29T14:49:19.988Z,6.60
2023-03-29T14:51:47.715Z,9.45
2023-03-29T14:54:21.982Z,10.60
2023-03-29T14:56:50.404Z,5.70
2023-03-29T14:59:44.361Z,11.35
2023-03-29T15:02:32.824Z,9.77
2023-03-29T15:05:05.312Z,9.15
2023-03-29T15:07:37.034Z,9.45
2023-03-29T15:10:08.118Z,8.85
2023-03-29T15:12:37.871Z,8.93
2023-03-29T15:15:07.564Z,10.60
2023-03-29T15:17:51.055Z,8.77
2023-03-29T15:20:24.406Z,7.38
2023-03-29T15:23:16.301Z,7.03
2023-03-29T15:25:59.127Z,7.57
2023-03-29T15:28:30.944Z,6.70
2023-03-29T15:31:16.203Z,9.77
2023-03-29T15:33:43.010Z,8.23
2023-03-29T15:36:12.334Z,7.40
2023-03-29T15:38:44.732Z,9.43
2023-03-29T15:41:14.051Z,5.55
2023-03-29T15:43:41.497Z,7.20
2023-03-29T15:46:10.685Z,7.45
2023-03-29T15:48:37.405Z,7.93
2023-03-29T15:51:06.498Z,11.93
2023-03-29T15:53:35.018Z,7.32
2023-03-29T15:56:05.320Z,6.65
2023-03-29T15:58:33.522Z,8.30
2023-03-29T16:01:34.458Z,8.68
2023-03-29T16:04:21.954Z,7.13
2023-03-29T16:06:52.687Z,8.07
2023-03-29T16:09:20.502Z,7.82
2023-03-29T16:11:48.070Z,6.65
2023-03-29T16:14:27.324Z,6.80
2023-03-29T16:16:55.493Z,7.90
2023-03-29T16:19:23.404Z,5.63
2023-03-29T16:21:50.850Z,7.72
2023-03-29T16:24:20.059Z,6.07
2023-03-29T16:26:47.194Z,4.75
2023-03-29T16:29:13.969Z,6.85
2023-03-29T16:31:40.742Z,4.25
2023-03-29T16:34:09.104Z,10.05
2023-03-29T16:36:35.767Z,6.43
2023-03-29T16:39:03.057Z,5.95
2023-03-29T16:41:29.732Z,8.57
2023-03-29T16:43:56.659Z,7.38
2023-03-29T16:46:23.741Z,7.57
2023-03-29T16:48:51.475Z,4.90
2023-03-29T16:51:18.328Z,7.15
2023-03-29T16:53:45.017Z,7.45
2023-03-29T16:56:11.746Z,8.00
2023-03-29T16:58:42.445Z,5.63
2023-03-29T17:01:17.135Z,6.07
2023-03-29T17:03:43.924Z,9.10
2023-03-29T17:06:12.047Z,4.72
2023-03-29T17:08:39.258Z,5.57
2023-03-29T17:11:09.337Z,7.70
2023-03-29T17:13:37.270Z,6.53
2023-03-29T17:16:04.170Z,5.80
2023-03-29T17:18:31.241Z,4.55
2023-03-29T17:20:59.027Z,5.97
2023-03-29T17:23:26.424Z,5.20
2023-03-29T17:25:55.752Z,6.38
2023-03-29T17:28:23.457Z,5.30
2023-03-29T17:30:50.304Z,7.30
2023-03-29T17:33:18.612Z,6.85
2023-03-29T17:35:46.640Z,7.47
2023-03-29T17:38:13.410Z,5.55
2023-03-29T17:40:40.414Z,4.82
2023-03-29T17:43:07.053Z,5.32
2023-03-29T17:45:35.232Z,5.10
2023-03-29T17:48:04.051Z,5.22
2023-03-29T17:50:32.305Z,6.13
2023-03-29T17:52:59.026Z,6.68
2023-03-29T17:55:26.417Z,5.93
2023-03-29T17:57:53.119Z,6.20
2023-03-29T18:00:20.075Z,6.22
2023-03-29T18:02:46.855Z,6.60
2023-03-29T18:05:13.649Z,4.72
2023-03-29T18:07:40.335Z,5.10
2023-03-29T18:10:08.110Z,4.45
2023-03-29T18:12:34.782Z,5.88
2023-03-29T18:15:01.652Z,4.28
2023-03-29T18:17:28.461Z,3.88
2023-03-29T18:19:55.177Z,5.82
2023-03-29T18:22:23.840Z,7.22
2023-03-29T18:24:50.962Z,3.53
2023-03-29T18:27:18.302Z,4.75
2023-03-29T18:29:45.080Z,5.40
2023-03-29T18:32:12.097Z,3.33
2023-03-29T18:34:39.352Z,2.92
2023-03-29T18:37:07.298Z,3.88
2023-03-29T18:39:35.695Z,2.38
2023-03-29T18:42:02.294Z,3.38
2023-03-29T18:44:29.430Z,4.40
2023-03-29T18:46:56.211Z,4.95
2023-03-29T18:49:23.047Z,3.33
2023-03-29T18:51:49.903Z,4.13
2023-03-29T18:54:17.358Z,3.28
2023-03-29T18:56:44.183Z,5.25
2023-03-29T18:59:11.354Z,6.72
2023-03-29T19:01:38.628Z,3.13
2023-03-29T19:04:05.567Z,5.57
2023-03-29T19:06:32.404Z,4.25
2023-03-29T19:09:01.821Z,2.80
2023-03-29T19:11:33.074Z,6.03
2023-03-29T19:13:59.726Z,4.03
2023-03-29T19:16:27.455Z,2.92
2023-03-29T19:18:54.491Z,9.50
2023-03-29T19:21:21.156Z,3.70
2023-03-29T19:23:51.588Z,3.33
2023-03-29T19:26:18.237Z,6.07
2023-03-29T19:28:44.880Z,4.78
2023-03-29T19:31:11.985Z,2.88
2023-03-29T19:33:38.656Z,3.42
2023-03-29T19:36:05.809Z,4.07
2023-03-29T19:38:32.650Z,4.05
2023-03-29T19:40:59.357Z,6.13
2023-03-29T19:43:26.969Z,3.28
2023-03-29T19:45:53.689Z,6.32
2023-03-29T19:48:22.907Z,5.75
2023-03-29T19:50:51.129Z,3.83
2023-03-29T19:53:17.894Z,5.25
2023-03-29T19:55:45.013Z,3.33
2023-03-29T19:58:12.582Z,5.70
2023-03-29T20:00:39.392Z,5.20
2023-03-29T20:03:10.266Z,6.95
2023-03-29T20:05:38.582Z,3.55
2023-03-29T20:08:06.397Z,4.88
2023-03-29T20:10:33.779Z,3.92
2023-03-29T20:13:00.670Z,4.10
2023-03-29T20:15:27.538Z,4.95
2023-03-29T20:17:58.543Z,7.97
2023-03-29T20:20:26.811Z,6.40
2023-03-29T20:23:04.587Z,3.65
2023-03-29T20:25:32.619Z,5.75
2023-03-29T20:27:59.523Z,5.82
2023-03-29T20:30:26.547Z,3.50
2023-03-29T20:32:53.220Z,5.22
2023-03-29T20:35:20.119Z,6.03
2023-03-29T20:37:46.766Z,6.90
2023-03-29T20:40:15.480Z,5.30
2023-03-29T20:42:42.390Z,4.85
2023-03-29T20:45:18.184Z,4.15
2023-03-29T20:47:50.144Z,5.03
2023-03-29T20:50:18.778Z,3.08
2023-03-29T20:52:45.458Z,3.30
2023-03-29T20:55:22.122Z,6.38
2023-03-29T20:57:58.118Z,4.70
2023-03-29T21:00:27.183Z,4.70
2023-03-29T21:02:58.512Z,2.25
2023-03-29T21:05:29.192Z,2.90
2023-03-29T21:07:56.844Z,5.50
2023-03-29T21:10:25.228Z,4.00
2023-03-29T21:12:52.366Z,3.20
2023-03-29T21:15:19.737Z,3.22
2023-03-29T21:17:47.455Z,5.18
2023-03-29T21:20:14.866Z,3.92
2023-03-29T21:22:44.995Z,3.20
2023-03-29T21:25:15.451Z,4.15
2023-03-29T21:27:42.861Z,3.30
2023-03-29T21:30:10.755Z,4.32
2023-03-29T21:32:37.765Z,2.88
2023-03-29T21:35:04.911Z,3.53
2023-03-29T21:37:31.609Z,2.60
2023-03-29T21:39:58.277Z,3.38
2023-03-29T21:42:25.046Z,3.05
2023-03-29T21:44:51.646Z,3.72
2023-03-29T21:47:18.307Z,4.03
2023-03-29T21:49:45.324Z,3.17
2023-03-29T21:52:11.986Z,3.13
2023-03-29T21:54:38.727Z,5.55
2023-03-29T21:57:05.572Z,2.90
2023-03-29T21:59:32.242Z,4.72
2023-03-29T22:01:58.966Z,2.30
2023-03-29T22:04:36.049Z,4.07
2023-03-29T22:07:04.860Z,3.33
2023-03-29T22:09:33.265Z,3.28
2023-03-29T22:12:01.348Z,3.95
2023-03-29T22:14:30.762Z,3.35
2023-03-29T22:16:57.498Z,3.63
2023-03-29T22:19:24.147Z,2.60
2023-03-29T22:21:51.360Z,2.78
2023-03-29T22:24:18.419Z,4.45
2023-03-29T22:26:45.202Z,3.95
2023-03-29T22:29:12.204Z,4.60
2023-03-29T22:31:39.429Z,3.58
2023-03-29T22:34:06.598Z,2.53
2023-03-29T22:36:33.389Z,2.05
2023-03-29T22:39:00.079Z,3.58
2023-03-29T22:41:28.012Z,4.00
2023-03-29T22:43:56.713Z,2.78
2023-03-29T22:46:24.164Z,6.35
2023-03-29T22:48:51.341Z,3.08
2023-03-29T22:51:18.295Z,2.90
2023-03-29T22:53:46.963Z,5.45
2023-03-29T22:56:15.341Z,3.72
2023-03-29T22:58:42.331Z,4.13
2023-03-29T23:01:09.182Z,6.57
2023-03-29T23:03:36.169Z,2.53
2023-03-29T23:06:03.248Z,4.38
2023-03-29T23:08:33.902Z,3.83
2023-03-29T23:11:01.663Z,4.53
2023-03-29T23:13:29.446Z,2.22
2023-03-29T23:15:59.054Z,2.80
2023-03-29T23:18:28.258Z,4.13
2023-03-29T23:20:56.592Z,4.03
2023-03-29T23:23:24.902Z,2.35
2023-03-29T23:25:52.844Z,3.45
2023-03-29T23:28:23.326Z,3.28
2023-03-29T23:31:00.270Z,3.22
2023-03-29T23:33:28.558Z,3.38
2023-03-29T23:35:55.328Z,3.38
2023-03-29T23:38:22.704Z,4.25
2023-03-29T23:40:58.936Z,2.67
2023-03-29T23:43:32.824Z,6.50
2023-03-29T23:46:01.995Z,6.78
2023-03-29T23:48:29.621Z,3.70
2023-03-29T23:50:59.470Z,1.75
2023-03-29T23:53:28.370Z,3.97
2023-03-29T23:56:00.363Z,4.00
2023-03-29T23:58:36.714Z,3.67
